Time;durP1;ratioP1;P1;durP2;ratioP2;P2;SDS_P1;SDS_P2;PMS_P1;PMS_P2;Temp;Humidity;BMP_temperature;BMP_pressure;BME280_temperature;BME280_humidity;BME280_pressure;Samples;Min_cycle;Max_cycle;Signal;HPM_P1;HPM_P2
2023/01/17 00:02:19;;;;;;;14.10;8.70;;;;;;;5.71;70.33;99558.58;105362;1266;62656;-62
2023/01/17 00:18:33;;;;;;;19.30;10.10;;;;;;;6.05;70.32;99545.75;103862;1280;605425;-66
2023/01/17 00:26:32;;;;;;;11.70;4.80;;;;;;;6.29;69.56;99534.08;105336;1264;64376;-65
2023/01/17 01:36:01;;;;;;;20.20;11.60;;;;;;;5.82;70.78;99479.30;105270;1269;61595;-67
2023/01/17 01:38:28;;;;;;;22.30;12.30;;;;;;;5.84;70.72;99478.77;105318;1267;64755;-67
2023/01/17 01:40:55;;;;;;;9.50;4.60;;;;;;;5.82;70.68;99477.86;105324;1266;59705;-72
2023/01/17 01:43:46;;;;;;;19.90;11.50;;;;;;;5.79;70.75;99480.75;105341;1268;59600;-70
2023/01/17 01:46:15;;;;;;;19.30;10.60;;;;;;;5.73;70.73;99479.55;105327;1265;65189;-68
2023/01/17 01:48:54;;;;;;;11.90;4.30;;;;;;;5.72;70.80;99473.90;105414;1267;62349;-68
2023/01/17 01:51:24;;;;;;;24.30;11.10;;;;;;;5.66;71.05;99474.48;105399;1269;65135;-70
2023/01/17 01:53:58;;;;;;;22.80;10.80;;;;;;;5.67;71.07;99474.61;105363;1267;59573;-66
2023/01/17 01:56:25;;;;;;;18.20;11.40;;;;;;;5.67;71.11;99473.75;105103;1265;59756;-67
2023/01/17 01:58:52;;;;;;;23.60;11.00;;;;;;;5.65;71.09;99470.41;105339;1269;65229;-67
2023/01/17 02:01:19;;;;;;;16.00;5.50;;;;;;;5.64;71.25;99465.66;105273;1267;62627;-68
2023/01/17 02:03:45;;;;;;;17.50;11.80;;;;;;;5.62;71.24;99459.15;105335;1266;65071;-69
2023/01/17 02:06:29;;;;;;;12.90;4.90;;;;;;;5.61;71.33;99455.27;105345;1268;59661;-64
2023/01/17 02:09:02;;;;;;;11.00;4.20;;;;;;;5.63;71.16;99449.34;105373;1267;59598;-73
2023/01/17 02:11:29;;;;;;;11.60;4.90;;;;;;;5.67;71.04;99450.77;105392;1266;65578;-66
2023/01/17 02:13:56;;;;;;;18.80;10.90;;;;;;;5.70;70.99;99452.86;104636;1269;61631;-64
2023/01/17 02:16:53;;;;;;;16.70;10.90;;;;;;;5.71;71.13;99452.22;105433;1269;65495;-67
2023/01/17 02:19:45;;;;;;;19.70;5.60;;;;;;;5.70;71.33;99448.48;105297;1266;59580;-68
2023/01/17 02:22:40;;;;;;;17.70;11.00;;;;;;;5.68;71.47;99444.99;105289;1267;59656;-69
2023/01/17 02:25:30;;;;;;;10.70;3.90;;;;;;;5.63;71.61;99441.34;105384;1269;65191;-71
2023/01/17 02:28:08;;;;;;;16.40;10.70;;;;;;;5.63;71.66;99436.80;105348;1269;62700;-68
2023/01/17 02:30:45;;;;;;;9.60;4.40;;;;;;;5.65;71.76;99430.41;105369;1267;64720;-66
2023/01/17 02:33:21;;;;;;;15.70;4.50;;;;;;;5.66;72.05;99428.95;105424;1267;59673;-69
2023/01/17 02:36:13;;;;;;;23.80;11.60;;;;;;;5.64;72.23;99424.39;105279;1267;59708;-66
2023/01/17 02:38:48;;;;;;;12.00;4.60;;;;;;;5.62;72.43;99421.77;105223;1268;65377;-66
2023/01/17 02:41:20;;;;;;;14.30;5.30;;;;;;;5.57;72.57;99421.25;105381;1267;62675;-70
2023/01/17 02:43:48;;;;;;;11.90;4.60;;;;;;;5.52;72.86;99412.42;105859;1257;64839;-69
2023/01/17 02:46:15;;;;;;;20.70;11.90;;;;;;;5.51;72.82;99406.73;105911;1257;59761;-69
2023/01/17 02:48:42;;;;;;;20.90;11.30;;;;;;;5.56;72.87;99408.31;105844;1257;59788;-69
2023/01/17 02:51:30;;;;;;;12.60;5.50;;;;;;;5.59;72.82;99406.33;105833;1257;65096;-63
2023/01/17 02:54:22;;;;;;;11.30;5.00;;;;;;;5.59;72.97;99396.06;105791;1256;62613;-68
2023/01/17 02:56:58;;;;;;;21.60;12.00;;;;;;;5.58;73.20;99389.19;105861;1257;65765;-68
2023/01/17 02:59:42;;;;;;;12.90;6.50;;;;;;;5.53;73.26;99387.42;105875;1258;59692;-72
2023/01/17 03:02:16;;;;;;;11.00;4.30;;;;;;;5.50;73.42;99387.21;105841;1257;60721;-68
2023/01/17 03:04:47;;;;;;;17.00;10.50;;;;;;;5.51;73.41;99385.88;105754;1255;65975;-68
2023/01/17 03:07:17;;;;;;;19.70;11.00;;;;;;;5.54;73.37;99377.94;105489;1257;62820;-72
2023/01/17 03:09:44;;;;;;;17.40;10.00;;;;;;;5.57;73.32;99371.19;105901;1257;64932;-68
2023/01/17 03:12:11;;;;;;;17.20;10.40;;;;;;;5.56;73.48;99371.57;105726;1263;59592;-67
2023/01/17 03:14:38;;;;;;;19.80;12.50;;;;;;;5.55;73.59;99373.89;105752;1256;59670;-63
2023/01/17 03:17:06;;;;;;;9.00;3.70;;;;;;;5.53;73.70;99378.56;105770;1259;65581;-68
2023/01/17 03:19:32;;;;;;;13.90;5.40;;;;;;;5.50;73.73;99372.59;105791;1257;62452;-68
2023/01/17 03:22:00;;;;;;;19.10;10.70;;;;;;;5.49;73.70;99374.54;105723;1258;65033;-67
2023/01/17 03:24:27;;;;;;;19.50;10.00;;;;;;;5.54;73.61;99376.59;105830;1258;59764;-66
2023/01/17 03:26:53;;;;;;;17.80;10.00;;;;;;;5.64;73.52;99373.81;105817;1259;59689;-69
2023/01/17 03:29:20;;;;;;;21.30;11.10;;;;;;;5.62;73.59;99378.45;105863;1257;65399;-69
2023/01/17 03:31:47;;;;;;;10.30;4.00;;;;;;;5.60;73.78;99375.46;105809;1257;62320;-67
2023/01/17 03:34:14;;;;;;;17.00;9.90;;;;;;;5.57;73.81;99371.70;105860;1257;65041;-66
2023/01/17 03:36:41;;;;;;;15.40;10.20;;;;;;;5.54;73.88;99375.73;105797;1257;59699;-67
2023/01/17 03:39:08;;;;;;;9.60;3.10;;;;;;;5.56;73.80;99374.04;105792;1259;59644;-67
2023/01/17 03:41:34;;;;;;;10.50;8.10;;;;;;;5.60;73.60;99374.80;105828;1258;64233;-68
2023/01/17 03:44:02;;;;;;;15.40;9.70;;;;;;;5.65;73.60;99374.42;105885;1257;62607;-68
2023/01/17 03:46:29;;;;;;;15.70;10.20;;;;;;;5.67;73.65;99379.46;105881;1257;64927;-67
2023/01/17 03:48:56;;;;;;;17.20;10.90;;;;;;;5.67;73.63;99377.73;105496;1257;60834;-65
2023/01/17 03:51:23;;;;;;;18.90;11.70;;;;;;;5.65;73.60;99377.16;105896;1257;59801;-67
2023/01/17 03:53:50;;;;;;;12.10;4.30;;;;;;;5.62;73.58;99376.73;105784;1257;64368;-63
2023/01/17 03:56:19;;;;;;;10.20;4.50;;;;;;;5.64;73.52;99375.71;105904;1257;62471;-70
2023/01/17 04:24:57;;;;;;;21.50;12.50;;;;;;;6.67;70.87;99357.13;103492;1283;604770;-62
2023/01/17 04:27:24;;;;;;;26.50;13.80;;;;;;;6.84;69.65;99350.02;105015;1271;146619;-62
2023/01/17 04:29:51;;;;;;;24.80;13.20;;;;;;;6.68;69.75;99353.52;105150;1264;61553;-63
2023/01/17 04:32:18;;;;;;;24.20;11.80;;;;;;;6.59;69.82;99353.44;105066;1267;64827;-63
2023/01/17 04:34:45;;;;;;;27.10;12.50;;;;;;;6.53;69.92;99352.50;104985;1267;63627;-65
2023/01/17 04:37:12;;;;;;;23.80;14.40;;;;;;;6.45;70.07;99351.33;104856;1269;65196;-65
2023/01/17 04:39:39;;;;;;;22.70;14.30;;;;;;;6.39;70.32;99350.13;104865;1267;59305;-63
2023/01/17 04:42:06;;;;;;;25.60;14.40;;;;;;;6.32;70.62;99352.20;104998;1264;59529;-63
2023/01/17 04:44:33;;;;;;;30.10;15.10;;;;;;;6.26;70.71;99353.75;105047;1267;64464;-62
2023/01/17 04:47:01;;;;;;;21.80;14.00;;;;;;;6.20;70.90;99355.45;105083;1268;62483;-65
2023/01/17 04:49:28;;;;;;;12.80;5.30;;;;;;;6.19;70.91;99354.13;105062;1269;66434;-62
2023/01/17 04:51:55;;;;;;;21.30;5.70;;;;;;;6.21;70.82;99358.17;105056;1266;59576;-63
2023/01/17 04:54:22;;;;;;;16.30;7.10;;;;;;;6.20;70.93;99358.72;105107;1267;59595;-62
2023/01/17 04:56:49;;;;;;;21.00;14.60;;;;;;;6.16;71.03;99359.73;105122;1267;65354;-62
2023/01/17 04:59:16;;;;;;;24.90;15.60;;;;;;;6.11;71.18;99352.30;105075;1269;71904;-64
2023/01/17 05:01:43;;;;;;;26.90;16.60;;;;;;;6.06;71.29;99355.29;105185;1269;65025;-63
2023/01/17 05:04:10;;;;;;;23.00;15.80;;;;;;;6.01;71.44;99352.84;105034;1267;59707;-65
2023/01/17 05:06:37;;;;;;;23.10;14.70;;;;;;;6.00;71.56;99345.11;105165;1267;59751;-63
2023/01/17 05:09:05;;;;;;;22.20;14.70;;;;;;;6.02;71.59;99343.25;105081;1266;66551;-63
2023/01/17 05:11:32;;;;;;;29.90;16.90;;;;;;;6.02;71.81;99342.54;104892;1269;63878;-62
2023/01/17 05:13:59;;;;;;;30.20;16.60;;;;;;;6.02;71.93;99346.73;105144;1264;66186;-63
2023/01/17 05:16:26;;;;;;;30.90;17.40;;;;;;;6.01;72.17;99341.04;105099;1269;59650;-64
2023/01/17 05:18:53;;;;;;;31.90;17.00;;;;;;;5.98;72.25;99340.21;104847;1266;60804;-61
2023/01/17 05:21:20;;;;;;;23.60;15.60;;;;;;;5.93;72.23;99338.01;104703;1269;66513;-62
2023/01/17 05:23:47;;;;;;;12.50;5.90;;;;;;;5.92;72.28;99337.35;104877;1267;62558;-63
2023/01/17 05:26:14;;;;;;;9.50;3.80;;;;;;;5.95;72.29;99332.77;104634;1269;65123;-63
2023/01/17 05:28:41;;;;;;;22.20;15.80;;;;;;;5.97;72.38;99335.59;104925;1265;59716;-62
2023/01/17 05:31:08;;;;;;;32.70;17.20;;;;;;;5.97;72.59;99335.59;105144;1269;59710;-62
2023/01/17 05:33:35;;;;;;;34.80;17.80;;;;;;;5.96;72.66;99333.41;105102;1266;65488;-62
2023/01/17 05:36:02;;;;;;;29.50;17.80;;;;;;;5.94;72.71;99330.38;105113;1270;64077;-63
2023/01/17 05:38:29;;;;;;;18.80;9.30;;;;;;;5.93;72.72;99330.45;105114;1267;68395;-62
2023/01/17 05:41:01;;;;;;;26.80;15.20;;;;;;;5.96;72.58;99330.29;105083;1265;59568;-63
2023/01/17 05:43:28;;;;;;;28.70;15.80;;;;;;;5.99;72.57;99327.97;105134;1272;61742;-62
2023/01/17 05:45:55;;;;;;;15.20;6.70;;;;;;;6.02;72.66;99324.45;105119;1265;65226;-61
2023/01/17 05:48:22;;;;;;;26.60;18.10;;;;;;;6.02;72.80;99319.92;105109;1266;63705;-62
2023/01/17 05:50:48;;;;;;;29.50;18.20;;;;;;;6.00;72.89;99322.70;105114;1267;66187;-64
2023/01/17 05:53:15;;;;;;;30.00;18.90;;;;;;;5.97;73.05;99323.06;105106;1266;60201;-64
2023/01/17 05:55:42;;;;;;;14.30;6.90;;;;;;;5.94;73.14;99323.45;105139;1267;59800;-64
2023/01/17 05:58:15;;;;;;;21.00;8.60;;;;;;;5.95;73.14;99321.81;105156;1267;66471;-59
2023/01/17 06:00:42;;;;;;;15.70;7.20;;;;;;;5.99;73.06;99327.77;104732;1269;64201;-66
2023/01/17 06:03:09;;;;;;;31.00;17.80;;;;;;;6.04;73.07;99330.58;104557;1267;66389;-61
2023/01/17 06:05:36;;;;;;;28.40;18.80;;;;;;;6.06;73.15;99333.38;104575;1266;59657;-60
2023/01/17 06:08:03;;;;;;;20.60;8.10;;;;;;;6.06;73.26;99329.67;105060;1267;59622;-63
2023/01/17 06:10:30;;;;;;;29.30;19.40;;;;;;;6.05;73.23;99333.92;104897;1269;66504;-61
2023/01/17 06:13:09;;;;;;;29.90;17.90;;;;;;;6.03;73.20;99336.22;104767;1269;63893;-60
2023/01/17 06:15:36;;;;;;;30.90;19.00;;;;;;;6.04;73.11;99339.80;104968;1267;65137;-61
2023/01/17 06:18:07;;;;;;;30.80;17.70;;;;;;;6.08;73.00;99343.47;105070;1267;59714;-63
2023/01/17 06:20:34;;;;;;;25.20;7.40;;;;;;;6.12;73.00;99350.64;106075;1254;59630;-64
2023/01/17 06:23:03;;;;;;;24.30;16.50;;;;;;;6.13;73.03;99355.73;105914;1254;66763;-64
2023/01/17 06:25:43;;;;;;;30.60;18.00;;;;;;;6.12;73.09;99356.16;105944;1254;63949;-64
2023/01/17 06:28:11;;;;;;;32.70;19.00;;;;;;;6.09;73.08;99358.84;105911;1254;66125;-62
2023/01/17 06:30:38;;;;;;;29.30;18.20;;;;;;;6.05;73.11;99358.99;105970;1254;59726;-63
2023/01/17 06:33:05;;;;;;;27.10;16.60;;;;;;;6.05;73.04;99358.80;105863;1259;59628;-64
2023/01/17 06:35:32;;;;;;;27.30;18.10;;;;;;;6.09;72.92;99360.29;105819;1259;65991;-63
2023/01/17 06:37:59;;;;;;;29.80;18.40;;;;;;;6.10;73.11;99358.64;105942;1259;63571;-64
2023/01/17 06:40:27;;;;;;;30.50;18.40;;;;;;;6.09;73.17;99357.99;105600;1256;65173;-63
2023/01/17 06:42:57;;;;;;;29.60;18.70;;;;;;;6.06;73.19;99359.77;105932;1254;59694;-63
2023/01/17 06:45:23;;;;;;;21.00;7.80;;;;;;;6.05;73.28;99358.27;105900;1254;60242;-65
2023/01/17 06:47:50;;;;;;;19.70;6.70;;;;;;;6.09;73.03;99359.35;105896;1259;66484;-62
2023/01/17 06:50:18;;;;;;;32.00;16.80;;;;;;;6.15;73.03;99364.30;105654;1258;62820;-59
2023/01/17 06:52:53;;;;;;;30.00;18.30;;;;;;;6.22;72.94;99366.91;105374;1254;66644;-62
2023/01/17 06:55:19;;;;;;;20.90;7.00;;;;;;;6.25;73.01;99367.58;105986;1254;59820;-62
2023/01/17 06:57:47;;;;;;;30.30;18.00;;;;;;;6.25;72.99;99370.90;106024;1259;59576;-65
2023/01/17 07:00:15;;;;;;;31.30;18.80;;;;;;;6.24;72.94;99372.18;106038;1254;65295;-63
2023/01/17 07:02:46;;;;;;;32.60;17.60;;;;;;;6.22;72.75;99375.44;106016;1260;62775;-64
2023/01/17 07:05:15;;;;;;;30.30;17.90;;;;;;;6.25;72.62;99369.70;105618;1255;65096;-62
2023/01/17 07:07:43;;;;;;;26.10;17.00;;;;;;;6.29;72.53;99370.02;105608;1260;60127;-61
2023/01/17 07:10:11;;;;;;;30.40;18.00;;;;;;;6.34;72.51;99366.31;105456;1259;59221;-60
2023/01/17 07:12:38;;;;;;;30.40;18.20;;;;;;;6.37;72.57;99358.10;105723;1257;66291;-61
2023/01/17 07:15:06;;;;;;;30.60;19.40;;;;;;;6.37;72.56;99356.89;105372;1254;63921;-62
2023/01/17 07:17:33;;;;;;;45.40;19.10;;;;;;;6.34;72.41;99356.21;105590;1260;65107;-64
2023/01/17 07:20:00;;;;;;;25.40;17.50;;;;;;;6.29;72.45;99358.86;105520;1260;59660;-64
2023/01/17 07:22:27;;;;;;;34.20;17.90;;;;;;;6.28;72.33;99355.27;106013;1257;59675;-64
2023/01/17 07:24:57;;;;;;;29.40;17.10;;;;;;;6.33;72.31;99354.59;105426;1255;65372;-61
2023/01/17 07:27:26;;;;;;;32.00;18.00;;;;;;;6.38;72.29;99354.21;105556;1259;62720;-64
2023/01/17 07:29:53;;;;;;;31.10;17.90;;;;;;;6.38;72.28;99357.66;105426;1260;65921;-62
2023/01/17 07:32:20;;;;;;;29.80;18.20;;;;;;;6.37;72.40;99351.98;105468;1260;59729;-62
2023/01/17 07:34:47;;;;;;;28.60;17.60;;;;;;;6.36;72.32;99348.12;105423;1259;59308;-62
2023/01/17 07:37:14;;;;;;;18.30;9.00;;;;;;;6.32;72.37;99346.30;105371;1254;65428;-63
2023/01/17 07:39:41;;;;;;;30.20;17.20;;;;;;;6.33;72.28;99349.02;105465;1260;62807;-62
2023/01/17 07:42:08;;;;;;;28.70;17.20;;;;;;;6.37;72.19;99350.45;105569;1254;65998;-63
2023/01/17 07:44:35;;;;;;;30.50;16.80;;;;;;;6.41;72.16;99349.41;105934;1254;60060;-62
2023/01/17 07:47:03;;;;;;;30.80;17.20;;;;;;;6.42;72.15;99344.95;105902;1260;59512;-63
2023/01/17 07:49:30;;;;;;;30.50;19.10;;;;;;;6.41;72.23;99341.92;105899;1254;65676;-63
2023/01/17 07:51:56;;;;;;;23.90;17.40;;;;;;;6.39;72.27;99341.05;105651;1259;62912;-62
2023/01/17 07:54:23;;;;;;;26.30;17.00;;;;;;;6.38;72.34;99343.73;105886;1257;65884;-65
2023/01/17 07:56:50;;;;;;;25.50;16.60;;;;;;;6.41;72.18;99342.64;105883;1260;59513;-63
2023/01/17 07:59:17;;;;;;;22.20;16.00;;;;;;;6.44;72.16;99346.88;105907;1254;61212;-63
2023/01/17 08:01:44;;;;;;;26.00;16.90;;;;;;;6.49;72.07;99346.89;105901;1259;66682;-65
2023/01/17 08:04:12;;;;;;;29.50;17.60;;;;;;;6.50;72.20;99350.44;106070;1260;63812;-61
2023/01/17 08:06:41;;;;;;;31.40;17.40;;;;;;;6.49;72.24;99347.04;105456;1259;65137;-63
2023/01/17 08:09:08;;;;;;;27.20;18.40;;;;;;;6.47;72.29;99348.18;105459;1254;59771;-62
2023/01/17 08:11:35;;;;;;;32.00;20.10;;;;;;;6.44;72.32;99349.66;105392;1255;59739;-62
2023/01/17 08:14:02;;;;;;;24.30;9.80;;;;;;;6.41;72.45;99343.48;105414;1254;66540;-61
2023/01/17 08:16:29;;;;;;;13.80;7.00;;;;;;;6.43;72.43;99345.75;105436;1254;63612;-62
2023/01/17 08:18:56;;;;;;;27.40;17.30;;;;;;;6.49;72.34;99347.02;105863;1260;64992;-64
2023/01/17 08:21:23;;;;;;;27.60;18.20;;;;;;;6.55;72.33;99343.59;105830;1260;59727;-63
2023/01/17 08:23:50;;;;;;;18.70;8.80;;;;;;;6.60;72.39;99338.02;105665;1254;59526;-63
2023/01/17 08:26:21;;;;;;;30.30;19.60;;;;;;;6.59;72.47;99334.56;105374;1256;66469;-62
2023/01/17 08:28:55;;;;;;;33.50;19.40;;;;;;;6.58;72.53;99334.45;105950;1259;62560;-65
2023/01/17 08:31:23;;;;;;;32.20;17.70;;;;;;;6.58;72.47;99331.02;105845;1261;66221;-62
2023/01/17 08:33:49;;;;;;;27.70;17.30;;;;;;;6.61;72.44;99332.36;105930;1259;60526;-63
2023/01/17 08:36:16;;;;;;;23.60;15.80;;;;;;;6.65;72.33;99320.30;105802;1255;60471;-63
2023/01/17 08:38:43;;;;;;;30.30;18.20;;;;;;;6.68;72.31;99320.73;105420;1260;66028;-62
2023/01/17 08:41:11;;;;;;;34.40;18.60;;;;;;;6.68;72.47;99318.17;105560;1254;63788;-62
2023/01/17 08:43:39;;;;;;;28.20;19.20;;;;;;;6.66;72.47;99313.22;105412;1259;64924;-63
2023/01/17 08:46:06;;;;;;;17.60;8.20;;;;;;;6.65;72.61;99307.63;105626;1258;60553;-64
2023/01/17 08:48:33;;;;;;;31.50;19.60;;;;;;;6.62;72.74;99306.13;105885;1254;60496;-63
2023/01/17 08:51:01;;;;;;;28.60;20.10;;;;;;;6.61;72.77;99308.26;105869;1254;66421;-62
2023/01/17 08:53:28;;;;;;;25.60;9.50;;;;;;;6.64;72.62;99311.48;105884;1258;62743;-61
2023/01/17 08:55:59;;;;;;;30.00;19.20;;;;;;;6.70;72.57;99303.05;105546;1260;64928;-61
2023/01/17 08:58:27;;;;;;;37.80;20.90;;;;;;;6.75;72.53;99304.67;105560;1257;60581;-61
2023/01/17 09:01:03;;;;;;;30.10;19.30;;;;;;;6.77;72.64;99303.98;105567;1254;60537;-62
2023/01/17 09:03:31;;;;;;;26.40;18.60;;;;;;;6.81;72.63;99304.21;105417;1260;67293;-62
2023/01/17 09:06:11;;;;;;;34.80;19.90;;;;;;;6.90;72.44;99300.02;105390;1259;62969;-61
2023/01/17 09:08:38;;;;;;;30.80;19.80;;;;;;;6.93;72.41;99291.95;105501;1260;66616;-61
2023/01/17 09:11:09;;;;;;;16.50;7.10;;;;;;;6.98;72.28;99285.38;105446;1260;60511;-60
2023/01/17 09:13:37;;;;;;;29.60;18.00;;;;;;;7.07;72.02;99279.77;105497;1260;60462;-60
2023/01/17 09:16:04;;;;;;;28.80;18.90;;;;;;;7.14;71.93;99272.08;105433;1260;67234;-62
2023/01/17 09:18:32;;;;;;;30.40;19.40;;;;;;;7.16;71.92;99267.82;105440;1260;62623;-63
2023/01/17 09:20:59;;;;;;;28.70;19.10;;;;;;;7.17;72.00;99263.10;105805;1261;65894;-62
2023/01/17 09:23:27;;;;;;;32.90;19.60;;;;;;;7.12;72.09;99258.94;105409;1259;60511;-62
2023/01/17 09:25:57;;;;;;;24.20;8.60;;;;;;;7.13;72.01;99258.30;105927;1259;60504;-62
2023/01/17 09:28:25;;;;;;;36.50;19.10;;;;;;;7.17;71.88;99256.81;105444;1254;66099;-63
2023/01/17 09:30:52;;;;;;;29.70;19.20;;;;;;;7.23;71.68;99249.80;105517;1259;63600;-62
2023/01/17 09:33:19;;;;;;;19.90;9.40;;;;;;;7.26;71.52;99242.56;105501;1260;66065;-62
2023/01/17 09:35:46;;;;;;;32.10;20.00;;;;;;;7.21;71.72;99237.65;105385;1259;60557;-63
2023/01/17 09:38:13;;;;;;;36.20;21.20;;;;;;;7.11;72.04;99233.23;105502;1263;60572;-62
2023/01/17 09:40:44;;;;;;;33.20;21.50;;;;;;;7.12;71.96;99232.64;105469;1259;67051;-62
2023/01/17 09:43:27;;;;;;;29.90;20.50;;;;;;;7.19;71.74;99227.69;106048;1254;62589;-64
2023/01/17 09:45:54;;;;;;;31.20;19.60;;;;;;;7.18;71.65;99224.23;105233;1260;65201;-66
2023/01/17 09:48:31;;;;;;;30.30;17.30;;;;;;;7.21;71.43;99219.95;106053;1259;60469;-65
2023/01/17 09:51:11;;;;;;;29.50;16.80;;;;;;;7.23;71.17;99215.98;105684;1262;60411;-58
2023/01/17 09:53:38;;;;;;;28.20;18.00;;;;;;;7.26;71.22;99216.95;105643;1261;67289;-67
2023/01/17 09:56:14;;;;;;;25.60;17.80;;;;;;;7.28;71.36;99215.45;105960;1260;63765;-66
2023/01/17 09:58:53;;;;;;;15.40;7.00;;;;;;;7.24;71.42;99213.64;105737;1258;66551;-64
2023/01/17 10:01:42;;;;;;;27.40;19.70;;;;;;;7.19;71.44;99212.49;105859;1260;60524;-62
2023/01/17 10:04:35;;;;;;;13.20;6.90;;;;;;;7.12;71.43;99216.72;105384;1258;61335;-63
2023/01/17 10:07:13;;;;;;;27.80;18.10;;;;;;;7.06;71.44;99213.21;105423;1254;67606;-64
2023/01/17 10:09:52;;;;;;;30.70;19.40;;;;;;;7.00;71.46;99212.50;105522;1260;64927;-64
2023/01/17 10:12:54;;;;;;;30.00;17.90;;;;;;;7.01;71.56;99207.91;105377;1259;65910;-59
2023/01/17 10:15:40;;;;;;;15.60;7.40;;;;;;;7.07;71.59;99207.55;105180;1258;60751;-63
2023/01/17 10:18:26;;;;;;;30.90;20.20;;;;;;;7.15;71.63;99207.59;105412;1260;60477;-62
2023/01/17 10:20:59;;;;;;;18.60;7.90;;;;;;;7.22;71.74;99201.20;105920;1255;66293;-64
2023/01/17 10:24:00;;;;;;;35.00;20.20;;;;;;;7.23;71.64;99201.98;105378;1254;63616;-63
2023/01/17 10:26:27;;;;;;;36.90;21.90;;;;;;;7.24;71.94;99202.81;105717;1254;66233;-64
2023/01/17 10:29:04;;;;;;;37.50;21.70;;;;;;;7.25;72.01;99200.80;105322;1260;60461;-60
2023/01/17 10:31:34;;;;;;;32.90;19.80;;;;;;;7.25;72.02;99199.08;105423;1259;62498;-59
2023/01/17 10:34:20;;;;;;;31.10;19.50;;;;;;;7.29;71.90;99197.59;105345;1260;67239;-62
2023/01/17 10:36:52;;;;;;;18.10;9.60;;;;;;;7.32;71.80;99196.77;105519;1260;64091;-65
2023/01/17 10:39:24;;;;;;;35.70;20.00;;;;;;;7.36;71.87;99192.92;105954;1255;66216;-61
2023/01/17 10:42:01;;;;;;;34.40;21.00;;;;;;;7.37;71.92;99187.58;105434;1260;60489;-66
2023/01/17 10:44:34;;;;;;;35.70;20.90;;;;;;;7.37;72.11;99186.60;105925;1255;60906;-66
2023/01/17 10:47:05;;;;;;;33.70;20.70;;;;;;;7.37;72.29;99187.41;105360;1256;67287;-65
2023/01/17 10:49:32;;;;;;;31.20;19.10;;;;;;;7.37;72.29;99181.66;106045;1254;63801;-63
2023/01/17 10:52:09;;;;;;;30.10;19.50;;;;;;;7.40;72.17;99177.21;105882;1256;66174;-66
2023/01/17 10:55:04;;;;;;;27.20;18.70;;;;;;;7.38;72.36;99172.04;105907;1259;60542;-63
2023/01/17 10:57:40;;;;;;;31.70;19.20;;;;;;;7.44;72.37;99174.98;105550;1254;60488;-65
2023/01/17 11:00:26;;;;;;;31.90;19.30;;;;;;;7.49;72.32;99171.73;105760;1259;67312;-64
2023/01/17 11:02:53;;;;;;;18.70;7.20;;;;;;;7.51;72.10;99165.96;105967;1259;63830;-63
2023/01/17 11:05:23;;;;;;;32.70;20.70;;;;;;;7.48;72.04;99160.19;105876;1258;66242;-64
2023/01/17 11:08:04;;;;;;;30.50;19.80;;;;;;;7.43;72.14;99162.79;105396;1260;60469;-64
2023/01/17 11:10:42;;;;;;;30.10;20.30;;;;;;;7.45;72.16;99157.95;105880;1260;60503;-63
2023/01/17 11:13:21;;;;;;;32.10;19.70;;;;;;;7.51;72.16;99150.94;105458;1254;66276;-63
2023/01/17 11:15:52;;;;;;;31.50;21.90;;;;;;;7.56;72.13;99143.67;106156;1259;62894;-63
2023/01/17 11:18:20;;;;;;;29.60;20.70;;;;;;;7.57;72.28;99142.02;105567;1255;73144;-65
2023/01/17 11:20:47;;;;;;;28.00;20.80;;;;;;;7.58;72.33;99138.84;105935;1255;60482;-66
2023/01/17 11:23:19;;;;;;;33.70;21.90;;;;;;;7.57;72.21;99135.77;105872;1254;60424;-64
2023/01/17 11:26:09;;;;;;;39.50;22.30;;;;;;;7.54;72.29;99135.71;105996;1254;66264;-63
2023/01/17 11:28:37;;;;;;;39.40;23.40;;;;;;;7.56;72.22;99134.80;105977;1261;63582;-64
2023/01/17 11:31:06;;;;;;;40.50;22.80;;;;;;;7.61;72.13;99135.95;105443;1254;66165;-63
2023/01/17 11:33:48;;;;;;;39.30;22.70;;;;;;;7.63;72.01;99135.59;105563;1260;60558;-64
2023/01/17 11:36:15;;;;;;;38.10;23.50;;;;;;;7.64;72.07;99126.26;106043;1259;60533;-66
2023/01/17 11:38:56;;;;;;;33.20;23.40;;;;;;;7.62;71.96;99124.64;105661;1261;67307;-64
2023/01/17 11:41:24;;;;;;;35.10;23.40;;;;;;;7.56;71.86;99128.02;105897;1259;62827;-65
2023/01/17 11:43:57;;;;;;;37.30;21.10;;;;;;;7.50;71.89;99120.05;105973;1254;65162;-66
2023/01/17 11:46:24;;;;;;;28.40;9.60;;;;;;;7.48;71.91;99116.48;106038;1255;60584;-66
2023/01/17 11:48:55;;;;;;;32.20;20.00;;;;;;;7.51;71.83;99113.64;105962;1254;60921;-67
2023/01/17 11:51:32;;;;;;;28.80;20.30;;;;;;;7.54;71.81;99110.77;105926;1254;66233;-65
2023/01/17 11:54:13;;;;;;;31.90;21.90;;;;;;;7.51;71.71;99110.00;105863;1260;62749;-64
2023/01/17 11:56:43;;;;;;;32.70;21.30;;;;;;;7.44;71.81;99113.20;105827;1260;64880;-66
2023/01/17 11:59:19;;;;;;;34.70;22.20;;;;;;;7.40;72.10;99116.63;105959;1254;60623;-65
2023/01/17 12:01:46;;;;;;;;;;;;;;;7.39;72.21;99115.39;105899;1257;60498;-66
2023/01/17 12:04:41;;;;;;;21.20;9.80;;;;;;;7.41;72.10;99107.89;105861;1254;66319;-65
2023/01/17 12:07:18;;;;;;;18.30;8.20;;;;;;;7.41;71.84;99107.67;105865;1259;62870;-64
2023/01/17 12:09:54;;;;;;;35.40;21.20;;;;;;;7.42;71.94;99110.42;106040;1258;65282;-64
2023/01/17 12:15:17;;;;;;;37.90;21.30;;;;;;;7.45;72.39;99105.27;106009;1254;60431;-65
2023/01/17 12:17:49;;;;;;;36.80;23.20;;;;;;;7.44;72.36;99102.90;105815;1254;66217;-65
2023/01/17 12:20:24;;;;;;;32.60;20.60;;;;;;;7.40;72.48;99096.41;105837;1261;63545;-64
2023/01/17 12:23:00;;;;;;;31.40;19.40;;;;;;;7.42;72.42;99091.71;105871;1260;66173;-64
2023/01/17 12:25:45;;;;;;;29.00;19.70;;;;;;;7.48;72.28;99083.39;106063;1254;63402;-65
2023/01/17 12:28:30;;;;;;;29.20;20.30;;;;;;;7.52;72.18;99075.87;105895;1254;60524;-66
2023/01/17 12:31:43;;;;;;;32.50;20.60;;;;;;;7.50;72.13;99077.80;105778;1259;67332;-66
2023/01/17 12:34:32;;;;;;;30.20;20.80;;;;;;;7.44;72.39;99077.23;105450;1259;62794;-63
2023/01/17 12:37:04;;;;;;;30.90;20.40;;;;;;;7.40;72.41;99074.75;105942;1259;65116;-63
2023/01/17 12:39:37;;;;;;;29.80;20.00;;;;;;;7.35;72.65;99076.10;105889;1260;60483;-64
2023/01/17 12:42:12;;;;;;;33.50;18.50;;;;;;;7.37;72.56;99075.23;105617;1254;60831;-66
2023/01/17 12:45:14;;;;;;;32.30;18.50;;;;;;;7.42;72.53;99074.82;105676;1254;67015;-65
2023/01/17 12:47:44;;;;;;;27.70;19.70;;;;;;;7.47;72.47;99072.48;105798;1254;62999;-65
2023/01/17 12:50:22;;;;;;;35.30;20.10;;;;;;;7.47;72.63;99068.30;105262;1260;65052;-58
2023/01/17 12:53:04;;;;;;;13.70;7.90;;;;;;;7.45;72.69;99065.65;105415;1254;60410;-59
2023/01/17 12:55:36;;;;;;;28.60;20.80;;;;;;;7.42;72.59;99072.02;105504;1257;60508;-59
2023/01/17 12:58:05;;;;;;;29.00;18.60;;;;;;;7.37;72.62;99072.48;105460;1261;67343;-61
2023/01/17 13:00:32;;;;;;;27.30;18.20;;;;;;;7.37;72.50;99085.33;105366;1257;63521;-63
2023/01/17 13:03:14;;;;;;;27.50;18.30;;;;;;;7.40;72.45;99087.66;105456;1254;64900;-62
2023/01/17 13:05:44;;;;;;;29.00;20.10;;;;;;;7.44;72.47;99100.47;106035;1254;60553;-62
2023/01/17 13:08:39;;;;;;;31.00;21.00;;;;;;;7.43;72.48;99103.64;105770;1260;60898;-62
2023/01/17 13:11:15;;;;;;;34.50;22.20;;;;;;;7.41;72.73;99102.79;105884;1260;67298;-62
2023/01/17 13:13:42;;;;;;;21.30;10.30;;;;;;;7.41;72.91;99094.24;105607;1254;63473;-63
2023/01/17 13:16:30;;;;;;;29.90;19.60;;;;;;;7.45;72.88;99097.92;105630;1254;66628;-62
2023/01/17 13:19:05;;;;;;;34.40;22.00;;;;;;;7.51;72.75;99097.27;105987;1260;60441;-62
2023/01/17 13:21:33;;;;;;;23.10;11.70;;;;;;;7.53;72.69;99091.00;105582;1254;61025;-61
2023/01/17 13:24:04;;;;;;;39.70;23.80;;;;;;;7.48;72.81;99082.30;105435;1260;67111;-62
2023/01/17 13:26:47;;;;;;;38.50;24.00;;;;;;;7.44;73.00;99071.13;105429;1258;62724;-62
2023/01/17 13:29:28;;;;;;;31.70;22.80;;;;;;;7.40;73.14;99053.89;105869;1254;66162;-63
2023/01/17 13:32:30;;;;;;;31.80;21.60;;;;;;;7.42;73.23;99079.48;105902;1254;60514;-62
2023/01/17 13:35:42;;;;;;;29.80;20.20;;;;;;;7.47;73.21;99086.05;105448;1254;60603;-62
2023/01/17 13:38:34;;;;;;;35.80;22.10;;;;;;;7.51;73.22;99080.84;105571;1255;66237;-62